Terminal Aerodrome Forecast
Issued by NWS Lake Charles, LA

Home | Current Version | Previous Version | Text Only | Print | Product List | Glossary On
Versions: 1 2 3 4 5 6 7 8 9 10 11 12
000
FTUS44 KLCH 191131
TAFLFT
TAF
KLFT 191131Z 1912/2012 04003KT P6SM SCT250
     FM191700 07006KT P6SM SCT250
     FM200100 08003KT P6SM SCT250=

USA.gov is the U.S. government's official web portal to all federal, state and local government web resources and services.